createdAt,value
2024-04-19T00:00:14.473Z,4.3
2024-04-19T00:05:20.801Z,4.3
2024-04-19T00:10:27.027Z,4.4
2024-04-19T00:15:33.335Z,4.3
2024-04-19T00:20:39.635Z,4.2
2024-04-19T00:25:45.944Z,4.2
2024-04-19T00:30:52.239Z,4.1
2024-04-19T00:35:58.526Z,4
2024-04-19T00:41:04.948Z,3.9
2024-04-19T00:46:11.348Z,3.8
2024-04-19T00:51:17.787Z,3.8
2024-04-19T00:56:24.177Z,3.7
2024-04-19T01:01:30.602Z,3.6
2024-04-19T01:06:37.015Z,3.5
2024-04-19T01:11:43.426Z,3.5
2024-04-19T01:16:49.842Z,3.5
2024-04-19T01:21:56.293Z,3.4
2024-04-19T01:27:02.736Z,3.4
2024-04-19T01:32:09.152Z,3.4
2024-04-19T01:37:15.588Z,3.5
2024-04-19T01:42:22.040Z,3.6
2024-04-19T01:47:28.712Z,3.8
2024-04-19T02:02:48.797Z,3.9
2024-04-19T02:07:55.494Z,3.8
2024-04-19T02:13:02.189Z,3.7
2024-04-19T02:23:15.581Z,3.6
2024-04-19T02:28:22.298Z,3.5
2024-04-19T02:33:28.986Z,3.5
2024-04-19T02:38:35.673Z,3.5
2024-04-19T02:43:42.372Z,3.5
2024-04-19T02:48:49.100Z,3.4
2024-04-19T02:53:56.398Z,3.4
2024-04-19T02:59:03.777Z,3.4
2024-04-19T03:04:11.068Z,3.5
2024-04-19T03:09:18.385Z,3.6
2024-04-19T03:14:25.677Z,3.7
2024-04-19T03:19:32.985Z,3.7
2024-04-19T03:24:40.284Z,3.8
2024-04-19T03:29:47.620Z,3.9
2024-04-19T03:34:54.917Z,3.9
2024-04-19T03:40:02.218Z,3.9
2024-04-19T03:45:09.512Z,3.9
2024-04-19T03:50:16.811Z,3.9
2024-04-19T03:55:24.110Z,3.9
2024-04-19T04:00:32.402Z,4
2024-04-19T04:05:38.792Z,4
2024-04-19T04:10:44.949Z,4.1
2024-04-19T04:15:51.139Z,4.1
2024-04-19T04:20:57.345Z,4.2
2024-04-19T04:26:03.666Z,4.2
2024-04-19T04:31:09.758Z,4.2
2024-04-19T04:36:15.959Z,4.3
2024-04-19T04:41:22.172Z,4.3
2024-04-19T04:46:28.361Z,4.3
2024-04-19T04:51:34.635Z,4.5
2024-04-19T04:56:40.823Z,4.6
2024-04-19T05:01:47.027Z,4.7
2024-04-19T05:06:53.242Z,4.8
2024-04-19T05:11:59.420Z,4.8
2024-04-19T05:17:05.661Z,4.8
2024-04-19T05:22:11.820Z,4.8
2024-04-19T05:27:18.032Z,4.8
2024-04-19T05:32:24.223Z,4.8
2024-04-19T05:37:30.424Z,4.9
2024-04-19T05:42:36.620Z,4.8
2024-04-19T05:47:42.828Z,4.9
2024-04-19T05:52:49.026Z,5
2024-04-19T05:57:55.448Z,5
2024-04-19T06:03:01.614Z,4.9
2024-04-19T06:08:07.646Z,5
2024-04-19T06:13:13.953Z,5.1
2024-04-19T06:18:20.249Z,5
2024-04-19T06:23:26.783Z,5.2
2024-04-19T06:28:32.839Z,5.4
2024-04-19T06:33:39.228Z,5.4
2024-04-19T06:38:45.580Z,5.4
2024-04-19T06:43:51.729Z,5.4
2024-04-19T06:48:57.996Z,5.4
2024-04-19T06:54:04.328Z,5.4
2024-04-19T06:59:10.620Z,5.4
2024-04-19T07:04:17.096Z,5.6
2024-04-19T07:09:23.658Z,5.7
2024-04-19T07:14:29.489Z,5.8
2024-04-19T07:19:36.237Z,6
2024-04-19T07:24:42.676Z,6.3
2024-04-19T07:29:49.241Z,6.1
2024-04-19T07:34:55.610Z,6.1
2024-04-19T07:40:01.673Z,6
2024-04-19T07:45:08.081Z,6
2024-04-19T07:50:14.526Z,6.3
2024-04-19T07:55:21.268Z,6.3
2024-04-19T08:00:27.752Z,6.6
2024-04-19T08:05:34.136Z,6.3
2024-04-19T08:10:40.627Z,6.5
2024-04-19T08:15:47.022Z,6.6
2024-04-19T08:20:53.558Z,6.6
2024-04-19T08:25:59.947Z,6.7
2024-04-19T08:31:06.781Z,6.4
2024-04-19T08:36:13.227Z,6.5
2024-04-19T08:41:19.900Z,6.4
2024-04-19T08:46:26.556Z,6.2
2024-04-19T08:51:33.221Z,6.1
2024-04-19T08:56:39.978Z,6.1
2024-04-19T09:01:46.649Z,6
2024-04-19T09:06:53.325Z,6
2024-04-19T09:12:00.005Z,6.1
2024-04-19T09:17:06.823Z,6
2024-04-19T09:22:13.579Z,5.9
2024-04-19T09:27:20.289Z,5.8
2024-04-19T09:32:27.618Z,5.9
2024-04-19T09:37:34.815Z,6
2024-04-19T09:42:42.119Z,6.1
2024-04-19T09:47:49.323Z,6.1
2024-04-19T09:52:56.605Z,6.2
2024-04-19T09:58:04.020Z,5.9
2024-04-19T10:03:11.323Z,6
2024-04-19T10:08:18.707Z,6
2024-04-19T10:13:25.803Z,5.7
2024-04-19T10:18:33.119Z,5.6
2024-04-19T10:23:40.480Z,5.3
2024-04-19T10:28:47.980Z,5.1
2024-04-19T10:33:55.111Z,5
2024-04-19T10:44:11.604Z,4.6
2024-04-19T10:49:18.416Z,4.7
2024-04-19T10:54:24.638Z,4.7
2024-04-19T10:59:30.988Z,4.7
2024-04-19T11:04:37.125Z,4.8
2024-04-19T11:09:43.383Z,4.9
2024-04-19T11:14:49.640Z,4.9
2024-04-19T11:19:55.954Z,5.1
2024-04-19T11:25:02.412Z,5.1
2024-04-19T11:30:08.762Z,5.2
2024-04-19T11:35:14.921Z,5.2
2024-04-19T11:40:21.159Z,5.4
2024-04-19T11:45:27.518Z,6
2024-04-19T11:50:33.750Z,6.2
2024-04-19T11:55:40.061Z,6.2
2024-04-19T12:00:46.330Z,6.3
2024-04-19T12:05:52.721Z,6.4
2024-04-19T12:10:58.950Z,6.6
2024-04-19T12:16:05.256Z,6.8
2024-04-19T12:21:11.896Z,7
2024-04-19T12:26:17.855Z,7.6
2024-04-19T12:31:24.165Z,8
2024-04-19T12:36:30.421Z,8.5
2024-04-19T12:41:36.692Z,9.4
2024-04-19T12:46:42.977Z,9.7
2024-04-19T12:51:49.276Z,10.1
2024-04-19T12:56:55.700Z,10
2024-04-19T13:02:02.104Z,10.4
2024-04-19T13:07:08.550Z,11.1
2024-04-19T13:12:14.946Z,10.5
2024-04-19T13:17:21.374Z,9.4
2024-04-19T13:22:27.792Z,8.5
2024-04-19T13:27:34.203Z,8.4
2024-04-19T13:32:40.619Z,8.4
2024-04-19T13:37:47.010Z,8
2024-04-19T13:42:53.451Z,7.8
2024-04-19T13:47:59.898Z,7.9
2024-04-19T13:53:06.302Z,8
2024-04-19T13:58:12.708Z,7.8
2024-04-19T14:03:19.387Z,7.8
2024-04-19T14:08:26.092Z,7.7
2024-04-19T14:13:32.763Z,7.6
2024-04-19T14:18:39.438Z,7.5
2024-04-19T14:23:46.134Z,7.6
2024-04-19T14:28:52.827Z,7.6
2024-04-19T14:33:59.530Z,7.8
2024-04-19T14:39:06.242Z,7.8
2024-04-19T14:44:13.132Z,7.7
2024-04-19T14:49:19.649Z,7.5
2024-04-19T14:54:26.343Z,7.7
2024-04-19T14:59:33.002Z,7.7
2024-04-19T15:04:39.716Z,7.9
2024-04-19T15:09:46.995Z,7.9
2024-04-19T15:14:54.289Z,8.1
2024-04-19T15:20:01.611Z,8.2
2024-04-19T15:25:08.933Z,8.4
2024-04-19T15:30:16.255Z,8.5
2024-04-19T15:35:23.496Z,8.2
2024-04-19T15:40:30.816Z,8.1
2024-04-19T15:45:38.114Z,7.9
2024-04-19T15:50:45.419Z,7.7
2024-04-19T15:55:52.799Z,7.6
2024-04-19T16:01:00.015Z,7.5
2024-04-19T16:06:07.424Z,7.4
2024-04-19T16:11:14.634Z,7.4
2024-04-19T16:16:22.915Z,7.4
2024-04-19T16:21:29.325Z,7.3
2024-04-19T16:26:35.595Z,7.2
2024-04-19T16:31:42.006Z,7
2024-04-19T16:36:48.363Z,6.9
2024-04-19T16:41:54.651Z,6.8
2024-04-19T16:47:01.110Z,6.5
2024-04-19T16:52:07.124Z,5.6
2024-04-19T16:57:13.434Z,5.2
2024-04-19T17:02:19.840Z,5.1
2024-04-19T17:07:25.990Z,5
2024-04-19T17:12:32.322Z,5.1
2024-04-19T17:17:38.525Z,5.1
2024-04-19T17:22:44.840Z,5.1
2024-04-19T17:27:51.158Z,5.1
2024-04-19T17:32:57.448Z,4.9
2024-04-19T17:38:03.824Z,4.9
2024-04-19T17:43:10.040Z,4.8
2024-04-19T17:48:16.339Z,4.9
2024-04-19T17:53:22.623Z,4.8
2024-04-19T17:58:28.951Z,4.7
2024-04-19T18:03:35.190Z,4.7
2024-04-19T18:08:41.451Z,4.7
2024-04-19T18:13:47.745Z,4.7
2024-04-19T18:18:54.154Z,4.7
2024-04-19T18:24:00.645Z,4.7
2024-04-19T18:29:06.857Z,4.7
2024-04-19T18:34:13.260Z,4.7
2024-04-19T18:39:19.597Z,4.7
2024-04-19T18:44:26.022Z,4.7
2024-04-19T18:49:32.424Z,4.7
2024-04-19T18:54:38.835Z,4.7
2024-04-19T18:59:45.279Z,4.7
2024-04-19T19:04:51.675Z,4.7
2024-04-19T19:09:58.080Z,4.8
2024-04-19T19:15:04.495Z,4.7
2024-04-19T19:20:10.895Z,4.8
2024-04-19T19:25:17.300Z,4.7
2024-04-19T19:30:23.782Z,4.7
2024-04-19T19:35:30.354Z,4.7
2024-04-19T19:40:37.013Z,4.7
2024-04-19T19:45:43.750Z,4.7
2024-04-19T19:50:50.376Z,4.8
2024-04-19T19:55:57.096Z,4.8
2024-04-19T20:01:03.792Z,4.7
2024-04-19T20:06:10.485Z,4.7
2024-04-19T20:11:17.176Z,4.7
2024-04-19T20:16:24.167Z,4.7
2024-04-19T20:21:30.529Z,4.7
2024-04-19T20:26:37.236Z,4.6
2024-04-19T20:31:43.914Z,4.6
2024-04-19T20:36:50.728Z,4.8
2024-04-19T20:41:57.931Z,4.8
2024-04-19T20:47:05.173Z,4.9
2024-04-19T20:52:12.492Z,5
2024-04-19T20:57:19.771Z,5
2024-04-19T21:02:27.043Z,5.1
2024-04-19T21:07:34.478Z,5.1
2024-04-19T21:12:41.664Z,5.2
2024-04-19T21:17:48.951Z,5.2
2024-04-19T21:22:56.238Z,5.3
2024-04-19T21:28:03.556Z,5.3
2024-04-19T21:33:10.823Z,5.3
2024-04-19T21:38:18.141Z,5.4
2024-04-19T21:43:25.409Z,5.4
2024-04-19T21:48:33.720Z,5.4
2024-04-19T21:53:40.111Z,5.5
2024-04-19T21:58:46.374Z,5.4
2024-04-19T22:03:52.654Z,5.2
2024-04-19T22:08:58.964Z,5.1
2024-04-19T22:14:05.251Z,5.1
2024-04-19T22:19:11.510Z,5.1
2024-04-19T22:24:17.775Z,5.1
2024-04-19T22:29:24.078Z,5.1
2024-04-19T22:34:30.404Z,5.2
2024-04-19T22:39:36.657Z,5.1
2024-04-19T22:44:42.970Z,5.2
2024-04-19T22:49:49.265Z,5.2
2024-04-19T22:54:55.594Z,5.2
2024-04-19T23:00:01.880Z,5.2
2024-04-19T23:05:08.201Z,5.1
2024-04-19T23:10:14.485Z,5
2024-04-19T23:15:20.791Z,4.8
2024-04-19T23:20:27.068Z,4.6
2024-04-19T23:25:33.364Z,4.5
2024-04-19T23:30:39.666Z,4.4
2024-04-19T23:35:45.998Z,4.3
2024-04-19T23:40:52.283Z,4.4
2024-04-19T23:45:58.593Z,4.4
2024-04-19T23:51:04.919Z,4.6
2024-04-19T23:56:11.211Z,4.7
